createdAt,value
2018-09-09T00:00:15.472Z,7.37
2018-09-09T00:03:48.954Z,7.27
2018-09-09T00:07:22.166Z,7.77
2018-09-09T00:10:55.399Z,6.97
2018-09-09T00:14:28.619Z,7.73
2018-09-09T00:18:01.855Z,8.00
2018-09-09T00:21:35.070Z,7.13
2018-09-09T00:25:08.288Z,7.40
2018-09-09T00:28:41.512Z,6.90
2018-09-09T00:32:14.749Z,10.33
2018-09-09T00:35:48.048Z,8.20
2018-09-09T00:39:21.279Z,8.07
2018-09-09T00:42:54.475Z,7.90
2018-09-09T00:46:27.679Z,7.47
2018-09-09T00:50:06.271Z,7.57
2018-09-09T00:53:43.867Z,7.80
2018-09-09T00:57:17.237Z,7.27
2018-09-09T01:00:55.892Z,7.60
2018-09-09T01:04:29.091Z,8.27
2018-09-09T01:08:02.738Z,8.27
2018-09-09T01:11:35.939Z,8.77
2018-09-09T01:15:09.130Z,8.50
2018-09-09T01:18:42.326Z,8.07
2018-09-09T01:22:15.534Z,7.90
2018-09-09T01:25:48.734Z,7.67
2018-09-09T01:29:22.079Z,8.57
2018-09-09T01:32:55.276Z,7.27
2018-09-09T01:36:28.476Z,8.57
2018-09-09T01:40:01.747Z,8.83
2018-09-09T01:43:34.935Z,9.43
2018-09-09T01:47:08.131Z,9.50
2018-09-09T01:50:41.326Z,8.43
2018-09-09T01:54:14.531Z,8.33
2018-09-09T01:57:47.770Z,7.70
2018-09-09T02:01:21.026Z,8.30
2018-09-09T02:04:54.213Z,7.53
2018-09-09T02:08:27.436Z,8.13
2018-09-09T02:12:00.638Z,7.53
2018-09-09T02:15:33.823Z,7.40
2018-09-09T02:19:07.021Z,8.60
2018-09-09T02:22:40.242Z,8.30
2018-09-09T02:26:13.522Z,8.30
2018-09-09T02:29:46.715Z,6.87
2018-09-09T02:33:19.910Z,8.10
2018-09-09T02:36:53.124Z,8.93
2018-09-09T02:40:26.306Z,8.70
2018-09-09T02:43:59.502Z,7.50
2018-09-09T02:47:32.990Z,8.00
2018-09-09T02:51:06.532Z,7.17
2018-09-09T02:54:39.739Z,9.20
2018-09-09T02:58:13.797Z,7.60
2018-09-09T03:01:47.190Z,8.50
2018-09-09T03:05:20.370Z,7.60
2018-09-09T03:08:53.573Z,8.97
2018-09-09T03:12:26.791Z,9.10
2018-09-09T03:16:00.159Z,8.50
2018-09-09T03:19:33.365Z,8.47
2018-09-09T03:23:06.690Z,7.90
2018-09-09T03:26:40.014Z,6.90
2018-09-09T03:30:13.480Z,8.77
2018-09-09T03:33:46.880Z,8.30
2018-09-09T03:37:20.095Z,7.80
2018-09-09T03:40:53.347Z,8.37
2018-09-09T03:44:26.543Z,6.83
2018-09-09T03:47:59.742Z,8.80
2018-09-09T03:51:32.947Z,7.90
2018-09-09T03:55:06.187Z,7.50
2018-09-09T03:58:39.381Z,8.07
2018-09-09T04:02:12.587Z,7.67
2018-09-09T04:05:45.794Z,7.30
2018-09-09T04:09:18.994Z,7.43
2018-09-09T04:12:52.192Z,7.27
2018-09-09T04:16:25.387Z,7.83
2018-09-09T04:19:58.575Z,7.23
2018-09-09T04:23:31.767Z,7.60
2018-09-09T04:27:04.988Z,8.20
2018-09-09T04:30:38.204Z,7.50
2018-09-09T04:34:11.467Z,7.67
2018-09-09T04:37:44.679Z,8.20
2018-09-09T04:41:17.903Z,7.77
2018-09-09T04:44:51.099Z,6.70
2018-09-09T04:48:24.317Z,8.30
2018-09-09T04:51:57.519Z,7.60
2018-09-09T04:55:30.743Z,7.70
2018-09-09T04:59:03.938Z,9.73
2018-09-09T05:02:37.146Z,7.30
2018-09-09T05:06:10.368Z,6.97
2018-09-09T05:09:43.575Z,6.60
2018-09-09T05:13:16.771Z,7.97
2018-09-09T05:16:49.980Z,8.30
2018-09-09T05:20:23.183Z,6.70
2018-09-09T05:23:56.370Z,7.90
2018-09-09T05:27:29.875Z,6.93
2018-09-09T05:31:03.089Z,9.37
2018-09-09T05:34:36.282Z,7.27
2018-09-09T05:38:09.463Z,8.10
2018-09-09T05:41:42.660Z,7.37
2018-09-09T05:45:15.864Z,9.10
2018-09-09T05:48:49.139Z,9.40
2018-09-09T05:52:22.346Z,9.40
2018-09-09T05:55:56.177Z,9.27
2018-09-09T05:59:29.412Z,9.50
2018-09-09T06:03:02.597Z,10.33
2018-09-09T06:06:35.800Z,12.07
2018-09-09T06:10:09.594Z,9.40
2018-09-09T06:13:42.783Z,9.80
2018-09-09T06:17:16.027Z,9.13
2018-09-09T06:20:49.253Z,9.70
2018-09-09T06:24:22.856Z,9.87
2018-09-09T06:27:56.443Z,8.87
2018-09-09T06:31:30.011Z,10.17
2018-09-09T06:35:03.230Z,9.63
2018-09-09T06:38:36.441Z,8.07
2018-09-09T06:42:09.627Z,9.70
2018-09-09T06:45:42.876Z,8.67
2018-09-09T06:49:16.090Z,10.07
2018-09-09T06:52:49.300Z,9.97
2018-09-09T06:56:22.495Z,9.53
2018-09-09T06:59:55.712Z,10.27
2018-09-09T07:03:28.937Z,9.97
2018-09-09T07:07:02.144Z,9.97
2018-09-09T07:10:35.362Z,10.23
2018-09-09T07:14:08.820Z,9.87
2018-09-09T07:17:42.072Z,10.47
2018-09-09T07:21:15.295Z,9.17
2018-09-09T07:24:48.506Z,9.30
2018-09-09T07:28:21.723Z,10.37
2018-09-09T07:31:54.939Z,10.97
2018-09-09T07:35:28.156Z,11.00
2018-09-09T07:39:01.369Z,9.90
2018-09-09T07:42:34.596Z,10.03
2018-09-09T07:46:07.798Z,10.37
2018-09-09T07:49:41.089Z,9.57
2018-09-09T07:53:14.328Z,9.17
2018-09-09T07:56:47.547Z,10.07
2018-09-09T08:00:20.789Z,7.57
2018-09-09T08:03:54.053Z,10.20
2018-09-09T08:07:27.616Z,9.67
2018-09-09T08:11:00.828Z,9.40
2018-09-09T08:14:34.059Z,10.73
2018-09-09T08:18:08.297Z,10.13
2018-09-09T08:21:41.516Z,10.33
2018-09-09T08:25:14.739Z,10.93
2018-09-09T08:28:47.967Z,10.33
2018-09-09T08:32:21.199Z,10.93
2018-09-09T08:35:54.419Z,12.37
2018-09-09T08:39:27.655Z,11.40
2018-09-09T08:43:00.910Z,13.13
2018-09-09T08:46:34.130Z,10.57
2018-09-09T08:50:07.367Z,16.17
2018-09-09T08:53:40.704Z,14.43
2018-09-09T08:57:13.936Z,14.87
2018-09-09T09:00:47.191Z,12.50
2018-09-09T09:04:20.414Z,12.27
2018-09-09T09:07:53.773Z,12.40
2018-09-09T09:11:26.866Z,12.03
2018-09-09T09:15:00.091Z,12.37
2018-09-09T09:18:33.361Z,14.53
2018-09-09T09:22:07.168Z,12.43
2018-09-09T09:25:44.625Z,12.70
2018-09-09T09:29:17.900Z,11.00
2018-09-09T09:32:51.105Z,9.17
2018-09-09T09:36:24.400Z,12.37
2018-09-09T09:39:57.622Z,7.50
2018-09-09T09:43:30.836Z,7.27
2018-09-09T09:47:04.050Z,6.13
2018-09-09T09:50:37.263Z,3.97
2018-09-09T09:54:10.485Z,6.40
2018-09-09T09:57:43.711Z,5.97
2018-09-09T10:01:16.917Z,5.90
2018-09-09T10:04:50.135Z,4.93
2018-09-09T10:08:23.412Z,3.00
2018-09-09T10:11:56.613Z,4.70
2018-09-09T10:15:29.848Z,3.57
2018-09-09T10:19:03.055Z,3.90
2018-09-09T10:22:36.271Z,4.53
2018-09-09T10:26:09.483Z,3.70
2018-09-09T10:29:42.703Z,4.00
2018-09-09T10:33:15.941Z,3.60
2018-09-09T10:36:49.130Z,4.23
2018-09-09T10:40:22.339Z,4.83
2018-09-09T10:43:55.559Z,4.30
2018-09-09T10:47:28.770Z,5.73
2018-09-09T10:51:02.247Z,4.60
2018-09-09T10:54:35.509Z,5.63
2018-09-09T10:58:08.725Z,4.07
2018-09-09T11:01:42.004Z,3.63
2018-09-09T11:05:15.213Z,3.80
2018-09-09T11:08:48.427Z,3.70
2018-09-09T11:12:26.896Z,3.77
2018-09-09T11:16:00.053Z,4.37
2018-09-09T11:19:33.273Z,3.60
2018-09-09T11:23:06.483Z,3.33
2018-09-09T11:26:39.703Z,3.20
2018-09-09T11:30:12.919Z,3.90
2018-09-09T11:33:46.139Z,5.10
2018-09-09T11:37:19.352Z,4.13
2018-09-09T11:40:52.556Z,2.83
2018-09-09T11:44:25.773Z,2.90
2018-09-09T11:47:58.985Z,3.20
2018-09-09T11:51:32.492Z,4.47
2018-09-09T11:55:05.853Z,3.30
2018-09-09T11:58:39.079Z,3.43
2018-09-09T12:02:12.286Z,2.80
2018-09-09T12:05:45.504Z,2.70
2018-09-09T12:09:18.707Z,2.47
2018-09-09T12:12:51.922Z,2.87
2018-09-09T12:16:25.128Z,2.77
2018-09-09T12:19:58.342Z,3.37
2018-09-09T12:23:31.555Z,2.33
2018-09-09T12:27:04.800Z,2.90
2018-09-09T12:30:38.019Z,2.80
2018-09-09T12:34:11.220Z,3.23
2018-09-09T12:37:44.438Z,2.30
2018-09-09T12:41:17.662Z,2.70
2018-09-09T12:44:56.196Z,2.70
2018-09-09T12:48:34.841Z,4.17
2018-09-09T12:52:08.060Z,3.23
2018-09-09T12:55:41.271Z,2.63
2018-09-09T12:59:14.475Z,2.97
2018-09-09T13:02:47.719Z,3.17
2018-09-09T13:06:20.985Z,2.90
2018-09-09T13:09:54.199Z,2.10
2018-09-09T13:13:27.438Z,2.57
2018-09-09T13:17:00.675Z,2.70
2018-09-09T13:20:33.883Z,2.70
2018-09-09T13:24:07.107Z,1.93
2018-09-09T13:27:40.316Z,3.20
2018-09-09T13:31:13.530Z,2.30
2018-09-09T13:34:47.575Z,2.17
2018-09-09T13:38:20.840Z,2.10
2018-09-09T13:41:54.040Z,2.40
2018-09-09T13:45:27.235Z,2.47
2018-09-09T13:49:00.447Z,1.80
2018-09-09T13:52:33.691Z,2.00
2018-09-09T13:56:06.908Z,3.57
2018-09-09T13:59:40.124Z,2.60
2018-09-09T14:03:13.344Z,2.67
2018-09-09T14:06:46.587Z,2.07
2018-09-09T14:10:19.780Z,2.40
2018-09-09T14:13:52.993Z,1.60
2018-09-09T14:17:26.217Z,1.97
2018-09-09T14:20:59.435Z,2.23
2018-09-09T14:24:32.619Z,1.90
2018-09-09T14:28:05.829Z,1.77
2018-09-09T14:31:39.081Z,2.83
2018-09-09T14:35:12.408Z,1.73
2018-09-09T14:38:45.656Z,2.00
2018-09-09T14:42:18.881Z,3.13
2018-09-09T14:45:52.084Z,2.80
2018-09-09T14:49:26.354Z,2.10
2018-09-09T14:52:59.615Z,2.07
2018-09-09T14:56:32.836Z,2.53
2018-09-09T15:00:06.096Z,2.07
2018-09-09T15:03:39.323Z,2.13
2018-09-09T15:07:12.529Z,2.33
2018-09-09T15:10:45.734Z,4.73
2018-09-09T15:14:18.979Z,2.00
2018-09-09T15:17:52.205Z,2.40
2018-09-09T15:21:25.482Z,1.90
2018-09-09T15:24:58.756Z,2.23
2018-09-09T15:28:31.976Z,2.47
2018-09-09T15:32:05.190Z,4.87
2018-09-09T15:35:38.411Z,2.10
2018-09-09T15:39:11.627Z,2.20
2018-09-09T15:42:44.855Z,2.47
2018-09-09T15:46:18.068Z,2.30
2018-09-09T15:49:51.320Z,3.00
2018-09-09T15:53:24.544Z,4.50
2018-09-09T15:56:57.765Z,4.37
2018-09-09T16:00:31.012Z,2.93
2018-09-09T16:04:04.205Z,2.47
2018-09-09T16:07:37.415Z,2.63
2018-09-09T16:11:10.663Z,3.60
2018-09-09T16:14:43.864Z,3.13
2018-09-09T16:18:17.077Z,2.57
2018-09-09T16:21:50.283Z,3.10
2018-09-09T16:25:23.492Z,2.83
2018-09-09T16:28:57.096Z,4.60
2018-09-09T16:32:30.330Z,2.70
2018-09-09T16:36:03.543Z,2.90
2018-09-09T16:39:36.841Z,2.50
2018-09-09T16:43:10.051Z,3.50
2018-09-09T16:46:43.371Z,4.10
2018-09-09T16:50:16.904Z,3.73
2018-09-09T16:53:50.141Z,3.40
2018-09-09T16:57:23.539Z,3.50
2018-09-09T17:00:56.754Z,3.90
2018-09-09T17:04:29.957Z,3.83
2018-09-09T17:08:03.238Z,4.80
2018-09-09T17:11:36.801Z,3.67
2018-09-09T17:15:10.306Z,4.73
2018-09-09T17:18:43.535Z,2.83
2018-09-09T17:22:17.625Z,5.53
2018-09-09T17:25:50.871Z,3.57
2018-09-09T17:29:24.083Z,3.50
2018-09-09T17:32:57.308Z,3.60
2018-09-09T17:36:30.528Z,4.43
2018-09-09T17:40:03.764Z,3.80
2018-09-09T17:43:36.998Z,4.17
2018-09-09T17:47:10.230Z,3.67
2018-09-09T17:50:43.439Z,6.50
2018-09-09T17:54:17.127Z,6.33
2018-09-09T17:57:50.327Z,3.83
2018-09-09T18:01:23.857Z,4.73
2018-09-09T18:04:57.048Z,3.50
2018-09-09T18:08:30.276Z,4.30
2018-09-09T18:12:03.479Z,3.70
2018-09-09T18:15:37.095Z,3.50
2018-09-09T18:19:10.899Z,4.30
2018-09-09T18:22:44.100Z,4.87
2018-09-09T18:26:17.379Z,3.50
2018-09-09T18:29:50.674Z,4.50
2018-09-09T18:33:23.968Z,5.73
2018-09-09T18:36:57.181Z,7.30
2018-09-09T18:40:30.760Z,6.23
2018-09-09T18:44:04.307Z,5.63
2018-09-09T18:47:37.651Z,5.20
2018-09-09T18:51:10.942Z,6.07
2018-09-09T18:54:44.179Z,3.97
2018-09-09T18:58:17.795Z,6.27
2018-09-09T19:01:51.007Z,5.80
2018-09-09T19:05:24.718Z,8.57
2018-09-09T19:08:57.975Z,7.00
2018-09-09T19:12:31.202Z,9.43
2018-09-09T19:16:04.415Z,9.20
2018-09-09T19:19:37.624Z,4.87
2018-09-09T19:23:10.830Z,5.93
2018-09-09T19:26:44.047Z,5.43
2018-09-09T19:30:17.263Z,6.17
2018-09-09T19:33:50.456Z,7.43
2018-09-09T19:37:23.822Z,7.57
2018-09-09T19:40:57.034Z,5.47
2018-09-09T19:44:30.228Z,6.30
2018-09-09T19:48:03.455Z,5.80
2018-09-09T19:51:36.764Z,6.10
2018-09-09T19:55:10.019Z,5.53
2018-09-09T19:58:43.318Z,6.47
2018-09-09T20:02:16.613Z,5.27
2018-09-09T20:05:50.336Z,5.33
2018-09-09T20:09:23.603Z,5.27
2018-09-09T20:12:56.827Z,5.83
2018-09-09T20:16:30.032Z,5.33
2018-09-09T20:20:03.256Z,6.80
2018-09-09T20:23:36.470Z,9.07
2018-09-09T20:27:09.688Z,7.40
2018-09-09T20:30:42.971Z,5.63
2018-09-09T20:34:16.322Z,8.07
2018-09-09T20:37:50.086Z,5.47
2018-09-09T20:41:23.319Z,6.33
2018-09-09T20:44:56.582Z,6.60
2018-09-09T20:48:29.921Z,7.57
2018-09-09T20:52:03.191Z,5.53
2018-09-09T20:55:36.413Z,5.93
2018-09-09T20:59:09.674Z,6.30
2018-09-09T21:02:42.872Z,6.80
2018-09-09T21:06:16.075Z,6.50
2018-09-09T21:09:49.315Z,7.87
2018-09-09T21:13:22.510Z,8.53
2018-09-09T21:16:56.040Z,7.63
2018-09-09T21:20:29.239Z,8.97
2018-09-09T21:24:02.436Z,6.00
2018-09-09T21:27:35.975Z,7.40
2018-09-09T21:31:09.209Z,6.87
2018-09-09T21:34:42.411Z,8.20
2018-09-09T21:38:15.610Z,6.20
2018-09-09T21:41:51.865Z,6.10
2018-09-09T21:45:25.103Z,6.40
2018-09-09T21:48:58.306Z,5.90
2018-09-09T21:52:31.503Z,6.50
2018-09-09T21:56:04.718Z,7.53
2018-09-09T21:59:37.914Z,7.00
2018-09-09T22:03:11.118Z,6.70
2018-09-09T22:06:44.307Z,8.47
2018-09-09T22:10:17.526Z,7.93
2018-09-09T22:13:50.736Z,8.00
2018-09-09T22:17:23.957Z,7.33
2018-09-09T22:20:57.188Z,7.93
2018-09-09T22:24:30.462Z,7.80
2018-09-09T22:28:03.694Z,5.50
2018-09-09T22:31:36.871Z,6.23
2018-09-09T22:35:10.109Z,7.87
2018-09-09T22:38:43.318Z,5.50
2018-09-09T22:42:16.513Z,5.93
2018-09-09T22:45:51.288Z,6.77
2018-09-09T22:49:24.482Z,6.70
2018-09-09T22:52:57.695Z,6.60
2018-09-09T22:56:30.900Z,6.70
2018-09-09T23:00:04.585Z,7.97
2018-09-09T23:03:37.781Z,8.57
2018-09-09T23:07:10.980Z,7.03
2018-09-09T23:10:44.175Z,6.70
2018-09-09T23:14:17.374Z,6.13
2018-09-09T23:17:50.576Z,6.30
2018-09-09T23:21:23.772Z,5.23
2018-09-09T23:24:57.090Z,5.63
2018-09-09T23:28:30.287Z,7.50
2018-09-09T23:32:03.500Z,5.67
2018-09-09T23:35:36.723Z,7.13
2018-09-09T23:39:11.015Z,7.30
2018-09-09T23:42:44.211Z,7.43
2018-09-09T23:46:17.397Z,7.13
2018-09-09T23:49:50.586Z,6.63
2018-09-09T23:53:23.816Z,5.90
2018-09-09T23:56:57.064Z,6.40
